sensor_id;sensor_type;location;lat;lon;timestamp;temperature;humidity
68378;DHT22;55322;48.146;11.516;2023-03-24T00:02:06;12.39;69.20
68378;DHT22;55322;48.146;11.516;2023-03-24T00:04:32;12.35;69.41
68378;DHT22;55322;48.146;11.516;2023-03-24T00:06:57;12.33;69.12
68378;DHT22;55322;48.146;11.516;2023-03-24T00:09:26;12.39;68.43
68378;DHT22;55322;48.146;11.516;2023-03-24T00:11:53;12.42;68.11
68378;DHT22;55322;48.146;11.516;2023-03-24T00:14:18;12.43;68.05
68378;DHT22;55322;48.146;11.516;2023-03-24T00:16:43;12.45;67.81
68378;DHT22;55322;48.146;11.516;2023-03-24T00:19:10;12.45;67.86
68378;DHT22;55322;48.146;11.516;2023-03-24T00:21:38;12.42;68.10
68378;DHT22;55322;48.146;11.516;2023-03-24T00:24:04;12.40;67.67
68378;DHT22;55322;48.146;11.516;2023-03-24T00:26:32;12.39;67.88
68378;DHT22;55322;48.146;11.516;2023-03-24T00:28:57;12.32;68.43
68378;DHT22;55322;48.146;11.516;2023-03-24T00:31:23;12.25;69.28
68378;DHT22;55322;48.146;11.516;2023-03-24T00:33:49;12.28;67.98
68378;DHT22;55322;48.146;11.516;2023-03-24T00:36:17;12.30;67.86
68378;DHT22;55322;48.146;11.516;2023-03-24T00:38:44;12.29;68.17
68378;DHT22;55322;48.146;11.516;2023-03-24T00:41:11;12.25;68.35
68378;DHT22;55322;48.146;11.516;2023-03-24T00:43:37;12.21;68.64
68378;DHT22;55322;48.146;11.516;2023-03-24T00:46:06;12.17;68.85
68378;DHT22;55322;48.146;11.516;2023-03-24T00:48:33;12.21;68.13
68378;DHT22;55322;48.146;11.516;2023-03-24T00:51:01;12.18;68.26
68378;DHT22;55322;48.146;11.516;2023-03-24T00:53:27;12.15;68.07
68378;DHT22;55322;48.146;11.516;2023-03-24T00:55:54;12.18;68.21
68378;DHT22;55322;48.146;11.516;2023-03-24T00:58:20;12.17;68.25
68378;DHT22;55322;48.146;11.516;2023-03-24T01:00:48;12.14;68.23
68378;DHT22;55322;48.146;11.516;2023-03-24T01:03:14;12.05;69.17
68378;DHT22;55322;48.146;11.516;2023-03-24T01:05:40;11.94;70.09
68378;DHT22;55322;48.146;11.516;2023-03-24T01:08:07;11.98;68.92
68378;DHT22;55322;48.146;11.516;2023-03-24T01:10:35;11.89;69.63
68378;DHT22;55322;48.146;11.516;2023-03-24T01:13:07;11.82;70.40
68378;DHT22;55322;48.146;11.516;2023-03-24T01:15:33;11.75;70.68
68378;DHT22;55322;48.146;11.516;2023-03-24T01:18:00;11.67;71.62
68378;DHT22;55322;48.146;11.516;2023-03-24T01:20:27;11.65;70.84
68378;DHT22;55322;48.146;11.516;2023-03-24T01:22:52;11.53;72.79
68378;DHT22;55322;48.146;11.516;2023-03-24T01:25:20;11.45;72.75
68378;DHT22;55322;48.146;11.516;2023-03-24T01:27:46;11.40;72.98
68378;DHT22;55322;48.146;11.516;2023-03-24T01:30:14;11.55;70.30
68378;DHT22;55322;48.146;11.516;2023-03-24T01:32:40;11.65;69.58
68378;DHT22;55322;48.146;11.516;2023-03-24T01:35:07;11.79;68.83
68378;DHT22;55322;48.146;11.516;2023-03-24T01:37:32;11.87;68.81
68378;DHT22;55322;48.146;11.516;2023-03-24T01:39:58;11.95;68.21
68378;DHT22;55322;48.146;11.516;2023-03-24T01:42:25;11.98;68.40
68378;DHT22;55322;48.146;11.516;2023-03-24T01:44:58;12.05;67.53
68378;DHT22;55322;48.146;11.516;2023-03-24T01:47:24;12.05;67.73
68378;DHT22;55322;48.146;11.516;2023-03-24T01:49:52;12.04;67.55
68378;DHT22;55322;48.146;11.516;2023-03-24T01:52:23;12.08;67.66
68378;DHT22;55322;48.146;11.516;2023-03-24T01:55:11;12.19;67.10
68378;DHT22;55322;48.146;11.516;2023-03-24T01:57:41;12.18;67.51
68378;DHT22;55322;48.146;11.516;2023-03-24T02:00:13;12.15;69.31
68378;DHT22;55322;48.146;11.516;2023-03-24T02:02:40;12.06;69.01
68378;DHT22;55322;48.146;11.516;2023-03-24T02:05:09;12.06;68.64
68378;DHT22;55322;48.146;11.516;2023-03-24T02:07:40;12.05;69.32
68378;DHT22;55322;48.146;11.516;2023-03-24T02:10:13;11.99;70.03
68378;DHT22;55322;48.146;11.516;2023-03-24T02:12:41;12.04;69.89
68378;DHT22;55322;48.146;11.516;2023-03-24T02:15:08;12.06;68.25
68378;DHT22;55322;48.146;11.516;2023-03-24T02:40:25;12.12;68.46
68378;DHT22;55322;48.146;11.516;2023-03-24T02:45:55;12.24;67.88
68378;DHT22;55322;48.146;11.516;2023-03-24T02:48:42;12.24;68.81
68378;DHT22;55322;48.146;11.516;2023-03-24T02:51:26;12.32;67.78
68378;DHT22;55322;48.146;11.516;2023-03-24T02:54:14;12.32;69.55
68378;DHT22;55322;48.146;11.516;2023-03-24T02:56:45;12.26;69.30
68378;DHT22;55322;48.146;11.516;2023-03-24T02:59:19;12.26;68.73
68378;DHT22;55322;48.146;11.516;2023-03-24T03:01:51;12.32;68.76
68378;DHT22;55322;48.146;11.516;2023-03-24T03:04:24;12.28;69.16
68378;DHT22;55322;48.146;11.516;2023-03-24T03:06:55;12.22;69.67
68378;DHT22;55322;48.146;11.516;2023-03-24T03:09:23;12.18;70.64
68378;DHT22;55322;48.146;11.516;2023-03-24T03:11:51;12.08;74.32
68378;DHT22;55322;48.146;11.516;2023-03-24T03:14:28;12.08;72.59
68378;DHT22;55322;48.146;11.516;2023-03-24T03:19:40;12.05;70.64
68378;DHT22;55322;48.146;11.516;2023-03-24T03:22:14;12.05;71.07
68378;DHT22;55322;48.146;11.516;2023-03-24T03:24:41;11.99;71.65
68378;DHT22;55322;48.146;11.516;2023-03-24T03:27:13;11.97;72.15
68378;DHT22;55322;48.146;11.516;2023-03-24T03:29:44;11.91;73.34
68378;DHT22;55322;48.146;11.516;2023-03-24T03:32:14;11.91;73.27
68378;DHT22;55322;48.146;11.516;2023-03-24T03:34:51;11.92;72.27
68378;DHT22;55322;48.146;11.516;2023-03-24T03:37:45;11.91;72.58
68378;DHT22;55322;48.146;11.516;2023-03-24T03:40:33;11.95;72.00
68378;DHT22;55322;48.146;11.516;2023-03-24T03:42:59;12.01;72.02
68378;DHT22;55322;48.146;11.516;2023-03-24T03:45:24;11.98;72.60
68378;DHT22;55322;48.146;11.516;2023-03-24T03:47:50;12.02;71.90
68378;DHT22;55322;48.146;11.516;2023-03-24T03:50:15;12.02;72.48
68378;DHT22;55322;48.146;11.516;2023-03-24T03:52:41;11.98;72.31
68378;DHT22;55322;48.146;11.516;2023-03-24T03:55:09;11.95;72.28
68378;DHT22;55322;48.146;11.516;2023-03-24T03:57:36;11.94;72.11
68378;DHT22;55322;48.146;11.516;2023-03-24T04:00:04;11.91;73.02
68378;DHT22;55322;48.146;11.516;2023-03-24T04:08:05;11.74;73.58
68378;DHT22;55322;48.146;11.516;2023-03-24T04:13:27;11.70;74.49
68378;DHT22;55322;48.146;11.516;2023-03-24T04:16:08;11.70;73.25
68378;DHT22;55322;48.146;11.516;2023-03-24T04:22:03;11.77;73.15
68378;DHT22;55322;48.146;11.516;2023-03-24T04:27:14;11.79;73.36
68378;DHT22;55322;48.146;11.516;2023-03-24T04:32:47;11.75;73.03
68378;DHT22;55322;48.146;11.516;2023-03-24T04:35:23;11.74;73.55
68378;DHT22;55322;48.146;11.516;2023-03-24T04:37:57;11.78;72.77
68378;DHT22;55322;48.146;11.516;2023-03-24T04:40:27;11.84;72.26
68378;DHT22;55322;48.146;11.516;2023-03-24T04:42:55;11.89;71.67
68378;DHT22;55322;48.146;11.516;2023-03-24T04:45:21;11.84;72.71
68378;DHT22;55322;48.146;11.516;2023-03-24T04:47:56;11.82;72.32
68378;DHT22;55322;48.146;11.516;2023-03-24T04:50:30;11.78;72.94
68378;DHT22;55322;48.146;11.516;2023-03-24T04:52:57;11.81;72.08
68378;DHT22;55322;48.146;11.516;2023-03-24T04:57:56;11.73;73.48
68378;DHT22;55322;48.146;11.516;2023-03-24T05:00:21;11.81;71.88
68378;DHT22;55322;48.146;11.516;2023-03-24T05:02:46;11.85;71.74
68378;DHT22;55322;48.146;11.516;2023-03-24T05:05:12;11.88;71.23
68378;DHT22;55322;48.146;11.516;2023-03-24T05:07:38;11.95;70.24
68378;DHT22;55322;48.146;11.516;2023-03-24T05:10:04;11.92;70.74
68378;DHT22;55322;48.146;11.516;2023-03-24T05:12:30;11.94;70.89
68378;DHT22;55322;48.146;11.516;2023-03-24T05:14:55;11.91;71.48
68378;DHT22;55322;48.146;11.516;2023-03-24T05:17:21;11.88;72.59
68378;DHT22;55322;48.146;11.516;2023-03-24T05:19:46;11.84;73.40
68378;DHT22;55322;48.146;11.516;2023-03-24T05:22:11;11.84;73.82
68378;DHT22;55322;48.146;11.516;2023-03-24T05:24:37;11.75;74.64
68378;DHT22;55322;48.146;11.516;2023-03-24T05:27:04;11.65;76.11
68378;DHT22;55322;48.146;11.516;2023-03-24T05:29:29;11.61;76.98
68378;DHT22;55322;48.146;11.516;2023-03-24T05:31:55;11.57;76.83
68378;DHT22;55322;48.146;11.516;2023-03-24T05:34:21;11.55;76.37
68378;DHT22;55322;48.146;11.516;2023-03-24T05:36:46;11.57;77.23
68378;DHT22;55322;48.146;11.516;2023-03-24T05:39:12;11.51;78.68
68378;DHT22;55322;48.146;11.516;2023-03-24T05:41:37;11.53;79.22
68378;DHT22;55322;48.146;11.516;2023-03-24T05:44:02;11.51;80.18
68378;DHT22;55322;48.146;11.516;2023-03-24T05:46:27;11.45;81.70
68378;DHT22;55322;48.146;11.516;2023-03-24T05:48:53;11.47;81.39
68378;DHT22;55322;48.146;11.516;2023-03-24T05:51:18;11.41;82.11
68378;DHT22;55322;48.146;11.516;2023-03-24T05:53:43;11.33;83.34
68378;DHT22;55322;48.146;11.516;2023-03-24T05:56:09;11.31;84.08
68378;DHT22;55322;48.146;11.516;2023-03-24T05:58:37;11.27;84.05
68378;DHT22;55322;48.146;11.516;2023-03-24T06:01:07;11.28;82.55
68378;DHT22;55322;48.146;11.516;2023-03-24T06:03:34;11.28;83.12
68378;DHT22;55322;48.146;11.516;2023-03-24T06:06:06;11.37;81.15
68378;DHT22;55322;48.146;11.516;2023-03-24T06:08:32;11.54;78.69
68378;DHT22;55322;48.146;11.516;2023-03-24T06:11:02;11.64;76.97
68378;DHT22;55322;48.146;11.516;2023-03-24T06:13:29;11.64;77.74
68378;DHT22;55322;48.146;11.516;2023-03-24T06:15:55;11.77;77.09
68378;DHT22;55322;48.146;11.516;2023-03-24T06:18:23;11.88;76.37
68378;DHT22;55322;48.146;11.516;2023-03-24T06:20:48;11.91;76.56
68378;DHT22;55322;48.146;11.516;2023-03-24T06:23:15;11.92;76.32
68378;DHT22;55322;48.146;11.516;2023-03-24T06:25:41;11.88;79.83
68378;DHT22;55322;48.146;11.516;2023-03-24T06:28:11;11.89;79.52
68378;DHT22;55322;48.146;11.516;2023-03-24T06:30:38;11.92;78.23
68378;DHT22;55322;48.146;11.516;2023-03-24T06:33:04;11.92;77.76
68378;DHT22;55322;48.146;11.516;2023-03-24T06:35:30;11.95;76.79
68378;DHT22;55322;48.146;11.516;2023-03-24T06:37:55;11.94;77.47
68378;DHT22;55322;48.146;11.516;2023-03-24T06:40:20;11.95;77.96
68378;DHT22;55322;48.146;11.516;2023-03-24T06:42:46;11.95;78.21
68378;DHT22;55322;48.146;11.516;2023-03-24T06:45:13;11.94;78.81
68378;DHT22;55322;48.146;11.516;2023-03-24T06:47:39;11.98;76.70
68378;DHT22;55322;48.146;11.516;2023-03-24T06:50:05;12.04;76.65
68378;DHT22;55322;48.146;11.516;2023-03-24T06:52:32;12.06;76.42
68378;DHT22;55322;48.146;11.516;2023-03-24T06:54:57;12.19;74.91
68378;DHT22;55322;48.146;11.516;2023-03-24T06:57:22;12.21;74.73
68378;DHT22;55322;48.146;11.516;2023-03-24T06:59:47;12.24;75.20
68378;DHT22;55322;48.146;11.516;2023-03-24T07:02:13;12.19;77.28
68378;DHT22;55322;48.146;11.516;2023-03-24T07:04:38;12.19;78.88
68378;DHT22;55322;48.146;11.516;2023-03-24T07:07:03;12.19;77.31
68378;DHT22;55322;48.146;11.516;2023-03-24T07:09:29;12.26;76.30
68378;DHT22;55322;48.146;11.516;2023-03-24T07:11:55;12.29;77.19
68378;DHT22;55322;48.146;11.516;2023-03-24T07:14:20;12.36;76.32
68378;DHT22;55322;48.146;11.516;2023-03-24T07:16:46;12.29;76.20
68378;DHT22;55322;48.146;11.516;2023-03-24T07:19:11;12.25;76.87
68378;DHT22;55322;48.146;11.516;2023-03-24T07:21:37;12.21;77.37
68378;DHT22;55322;48.146;11.516;2023-03-24T07:24:02;12.14;78.61
68378;DHT22;55322;48.146;11.516;2023-03-24T07:26:28;12.06;77.65
68378;DHT22;55322;48.146;11.516;2023-03-24T07:28:53;11.91;81.00
68378;DHT22;55322;48.146;11.516;2023-03-24T07:31:18;11.85;80.69
68378;DHT22;55322;48.146;11.516;2023-03-24T07:33:44;11.77;82.42
68378;DHT22;55322;48.146;11.516;2023-03-24T07:36:10;11.71;82.55
68378;DHT22;55322;48.146;11.516;2023-03-24T07:38:35;11.77;79.52
68378;DHT22;55322;48.146;11.516;2023-03-24T07:41:01;12.11;76.32
68378;DHT22;55322;48.146;11.516;2023-03-24T07:43:26;12.15;76.30
68378;DHT22;55322;48.146;11.516;2023-03-24T07:45:51;12.05;78.00
68378;DHT22;55322;48.146;11.516;2023-03-24T07:48:17;12.02;77.94
68378;DHT22;55322;48.146;11.516;2023-03-24T07:50:42;11.99;79.17
68378;DHT22;55322;48.146;11.516;2023-03-24T07:53:08;11.97;79.21
68378;DHT22;55322;48.146;11.516;2023-03-24T07:55:37;11.99;79.33
68378;DHT22;55322;48.146;11.516;2023-03-24T07:58:03;12.11;79.04
68378;DHT22;55322;48.146;11.516;2023-03-24T08:00:28;12.14;78.73
68378;DHT22;55322;48.146;11.516;2023-03-24T08:02:54;12.18;77.81
68378;DHT22;55322;48.146;11.516;2023-03-24T08:05:21;12.22;77.83
68378;DHT22;55322;48.146;11.516;2023-03-24T08:07:49;12.26;77.14
68378;DHT22;55322;48.146;11.516;2023-03-24T08:10:18;12.36;76.28
68378;DHT22;55322;48.146;11.516;2023-03-24T08:12:45;12.43;77.34
68378;DHT22;55322;48.146;11.516;2023-03-24T08:15:11;12.59;76.39
68378;DHT22;55322;48.146;11.516;2023-03-24T08:17:37;12.66;76.41
68378;DHT22;55322;48.146;11.516;2023-03-24T08:20:04;12.76;75.97
68378;DHT22;55322;48.146;11.516;2023-03-24T08:22:33;12.84;75.62
68378;DHT22;55322;48.146;11.516;2023-03-24T08:24:58;12.93;74.91
68378;DHT22;55322;48.146;11.516;2023-03-24T08:27:24;13.06;74.87
68378;DHT22;55322;48.146;11.516;2023-03-24T08:29:49;13.11;74.40
68378;DHT22;55322;48.146;11.516;2023-03-24T08:32:15;13.15;75.45
68378;DHT22;55322;48.146;11.516;2023-03-24T08:34:40;13.18;74.28
68378;DHT22;55322;48.146;11.516;2023-03-24T08:37:06;13.17;74.63
68378;DHT22;55322;48.146;11.516;2023-03-24T08:39:31;13.23;74.70
68378;DHT22;55322;48.146;11.516;2023-03-24T08:42:00;13.20;74.82
68378;DHT22;55322;48.146;11.516;2023-03-24T08:44:25;13.18;75.42
68378;DHT22;55322;48.146;11.516;2023-03-24T08:46:51;13.18;75.55
68378;DHT22;55322;48.146;11.516;2023-03-24T08:49:16;13.18;76.29
68378;DHT22;55322;48.146;11.516;2023-03-24T08:51:42;13.17;76.36
68378;DHT22;55322;48.146;11.516;2023-03-24T08:54:08;13.20;76.75
68378;DHT22;55322;48.146;11.516;2023-03-24T08:56:33;13.18;76.59
68378;DHT22;55322;48.146;11.516;2023-03-24T08:58:58;13.18;76.65
68378;DHT22;55322;48.146;11.516;2023-03-24T09:01:24;13.17;77.22
68378;DHT22;55322;48.146;11.516;2023-03-24T09:03:49;13.24;76.43
68378;DHT22;55322;48.146;11.516;2023-03-24T09:06:16;13.27;77.43
68378;DHT22;55322;48.146;11.516;2023-03-24T09:08:41;13.24;79.55
68378;DHT22;55322;48.146;11.516;2023-03-24T09:11:13;13.24;78.27
68378;DHT22;55322;48.146;11.516;2023-03-24T09:13:39;13.31;79.13
68378;DHT22;55322;48.146;11.516;2023-03-24T09:16:04;13.38;78.03
68378;DHT22;55322;48.146;11.516;2023-03-24T09:18:30;13.47;77.89
68378;DHT22;55322;48.146;11.516;2023-03-24T09:20:55;13.50;76.11
68378;DHT22;55322;48.146;11.516;2023-03-24T09:23:21;13.53;76.33
68378;DHT22;55322;48.146;11.516;2023-03-24T09:25:48;13.51;77.88
68378;DHT22;55322;48.146;11.516;2023-03-24T09:28:14;13.48;77.51
68378;DHT22;55322;48.146;11.516;2023-03-24T09:30:40;13.59;75.74
68378;DHT22;55322;48.146;11.516;2023-03-24T09:33:06;13.61;76.17
68378;DHT22;55322;48.146;11.516;2023-03-24T09:35:31;13.55;78.13
68378;DHT22;55322;48.146;11.516;2023-03-24T09:37:57;13.45;78.08
68378;DHT22;55322;48.146;11.516;2023-03-24T09:40:24;13.31;80.35
68378;DHT22;55322;48.146;11.516;2023-03-24T09:42:56;13.28;80.30
68378;DHT22;55322;48.146;11.516;2023-03-24T09:45:25;13.24;78.88
68378;DHT22;55322;48.146;11.516;2023-03-24T09:47:55;13.23;80.34
68378;DHT22;55322;48.146;11.516;2023-03-24T09:50:28;13.23;79.32
68378;DHT22;55322;48.146;11.516;2023-03-24T09:53:03;13.08;80.23
68378;DHT22;55322;48.146;11.516;2023-03-24T09:55:31;13.07;81.88
68378;DHT22;55322;48.146;11.516;2023-03-24T09:58:02;12.99;83.99
68378;DHT22;55322;48.146;11.516;2023-03-24T10:00:32;12.94;83.13
68378;DHT22;55322;48.146;11.516;2023-03-24T10:03:00;12.87;82.66
68378;DHT22;55322;48.146;11.516;2023-03-24T10:08:35;12.89;82.16
68378;DHT22;55322;48.146;11.516;2023-03-24T10:11:27;12.93;82.06
68378;DHT22;55322;48.146;11.516;2023-03-24T10:14:05;12.89;83.06
68378;DHT22;55322;48.146;11.516;2023-03-24T10:16:55;12.93;82.49
68378;DHT22;55322;48.146;11.516;2023-03-24T10:19:53;12.96;82.95
68378;DHT22;55322;48.146;11.516;2023-03-24T10:22:24;13.04;82.73
68378;DHT22;55322;48.146;11.516;2023-03-24T10:27:45;13.13;82.34
68378;DHT22;55322;48.146;11.516;2023-03-24T10:30:18;13.07;81.88
68378;DHT22;55322;48.146;11.516;2023-03-24T10:32:45;13.20;81.25
68378;DHT22;55322;48.146;11.516;2023-03-24T10:35:19;13.10;81.43
68378;DHT22;55322;48.146;11.516;2023-03-24T10:37:45;13.14;80.61
68378;DHT22;55322;48.146;11.516;2023-03-24T10:40:17;13.13;80.35
68378;DHT22;55322;48.146;11.516;2023-03-24T10:42:44;13.08;81.05
68378;DHT22;55322;48.146;11.516;2023-03-24T10:45:13;13.14;80.60
68378;DHT22;55322;48.146;11.516;2023-03-24T10:47:43;13.18;79.97
68378;DHT22;55322;48.146;11.516;2023-03-24T10:50:09;13.25;80.25
68378;DHT22;55322;48.146;11.516;2023-03-24T10:52:43;13.27;79.24
68378;DHT22;55322;48.146;11.516;2023-03-24T10:55:15;13.28;80.28
68378;DHT22;55322;48.146;11.516;2023-03-24T10:57:43;13.20;80.48
68378;DHT22;55322;48.146;11.516;2023-03-24T11:00:16;13.25;81.27
68378;DHT22;55322;48.146;11.516;2023-03-24T11:02:53;13.28;80.48
68378;DHT22;55322;48.146;11.516;2023-03-24T11:05:20;13.25;78.39
68378;DHT22;55322;48.146;11.516;2023-03-24T11:07:49;13.21;79.82
68378;DHT22;55322;48.146;11.516;2023-03-24T11:10:17;13.15;80.51
68378;DHT22;55322;48.146;11.516;2023-03-24T11:17:45;12.86;82.94
68378;DHT22;55322;48.146;11.516;2023-03-24T11:20:17;12.89;83.68
68378;DHT22;55322;48.146;11.516;2023-03-24T11:22:54;12.75;83.59
68378;DHT22;55322;48.146;11.516;2023-03-24T11:25:25;12.64;83.70
68378;DHT22;55322;48.146;11.516;2023-03-24T11:27:58;12.52;83.68
68378;DHT22;55322;48.146;11.516;2023-03-24T11:30:28;12.43;85.90
68378;DHT22;55322;48.146;11.516;2023-03-24T11:32:55;12.48;85.32
68378;DHT22;55322;48.146;11.516;2023-03-24T11:35:21;12.56;85.52
68378;DHT22;55322;48.146;11.516;2023-03-24T11:37:47;12.86;83.44
68378;DHT22;55322;48.146;11.516;2023-03-24T11:40:17;12.93;83.43
68378;DHT22;55322;48.146;11.516;2023-03-24T11:42:57;13.17;84.58
68378;DHT22;55322;48.146;11.516;2023-03-24T11:45:38;13.44;83.20
68378;DHT22;55322;48.146;11.516;2023-03-24T11:48:13;13.51;83.09
68378;DHT22;55322;48.146;11.516;2023-03-24T11:50:43;13.65;82.54
68378;DHT22;55322;48.146;11.516;2023-03-24T11:58:27;14.22;81.32
68378;DHT22;55322;48.146;11.516;2023-03-24T12:01:11;14.29;79.87
68378;DHT22;55322;48.146;11.516;2023-03-24T12:06:34;14.79;76.27
68378;DHT22;55322;48.146;11.516;2023-03-24T12:14:49;15.25;74.56
68378;DHT22;55322;48.146;11.516;2023-03-24T12:17:42;15.56;72.21
68378;DHT22;55322;48.146;11.516;2023-03-24T12:21:28;15.62;69.90
68378;DHT22;55322;48.146;11.516;2023-03-24T12:23:31;15.49;70.11
68378;DHT22;55322;48.146;11.516;2023-03-24T12:42:42;15.48;68.04
68378;DHT22;55322;48.146;11.516;2023-03-24T12:45:18;15.35;69.32
68378;DHT22;55322;48.146;11.516;2023-03-24T12:53:23;15.35;69.26
68378;DHT22;55322;48.146;11.516;2023-03-24T12:55:58;15.38;66.37
68378;DHT22;55322;48.146;11.516;2023-03-24T12:58:40;15.42;67.55
68378;DHT22;55322;48.146;11.516;2023-03-24T13:04:06;15.21;69.94
68378;DHT22;55322;48.146;11.516;2023-03-24T13:06:37;15.18;69.76
68378;DHT22;55322;48.146;11.516;2023-03-24T13:09:30;15.04;72.57
68378;DHT22;55322;48.146;11.516;2023-03-24T13:12:16;14.67;74.84
68378;DHT22;55322;48.146;11.516;2023-03-24T13:14:58;14.26;75.81
68378;DHT22;55322;48.146;11.516;2023-03-24T13:17:44;14.06;74.36
68378;DHT22;55322;48.146;11.516;2023-03-24T13:20:13;13.88;74.94
68378;DHT22;55322;48.146;11.516;2023-03-24T13:22:41;13.81;75.33
68378;DHT22;55322;48.146;11.516;2023-03-24T13:25:19;13.96;74.97
68378;DHT22;55322;48.146;11.516;2023-03-24T13:27:47;14.04;75.22
68378;DHT22;55322;48.146;11.516;2023-03-24T13:30:31;14.01;75.54
68378;DHT22;55322;48.146;11.516;2023-03-24T13:33:03;14.02;75.12
68378;DHT22;55322;48.146;11.516;2023-03-24T13:38:19;14.12;75.32
68378;DHT22;55322;48.146;11.516;2023-03-24T13:40:51;14.05;74.80
68378;DHT22;55322;48.146;11.516;2023-03-24T13:43:20;13.98;73.11
68378;DHT22;55322;48.146;11.516;2023-03-24T13:45:49;13.86;74.11
68378;DHT22;55322;48.146;11.516;2023-03-24T13:48:31;13.88;74.15
68378;DHT22;55322;48.146;11.516;2023-03-24T13:51:23;13.78;74.21
68378;DHT22;55322;48.146;11.516;2023-03-24T13:53:59;13.86;72.72
68378;DHT22;55322;48.146;11.516;2023-03-24T13:56:46;13.75;73.60
68378;DHT22;55322;48.146;11.516;2023-03-24T14:05:08;13.71;73.67
68378;DHT22;55322;48.146;11.516;2023-03-24T14:13:00;13.55;74.27
68378;DHT22;55322;48.146;11.516;2023-03-24T14:15:34;13.50;74.57
68378;DHT22;55322;48.146;11.516;2023-03-24T14:23:45;13.57;74.32
68378;DHT22;55322;48.146;11.516;2023-03-24T14:26:30;13.55;73.47
68378;DHT22;55322;48.146;11.516;2023-03-24T14:28:58;13.44;73.22
68378;DHT22;55322;48.146;11.516;2023-03-24T14:31:30;13.53;73.38
68378;DHT22;55322;48.146;11.516;2023-03-24T14:36:39;13.43;73.10
68378;DHT22;55322;48.146;11.516;2023-03-24T14:40:05;13.35;73.19
68378;DHT22;55322;48.146;11.516;2023-03-24T14:42:40;13.37;72.27
68378;DHT22;55322;48.146;11.516;2023-03-24T14:45:38;13.34;72.11
68378;DHT22;55322;48.146;11.516;2023-03-24T14:48:16;13.31;72.10
68378;DHT22;55322;48.146;11.516;2023-03-24T14:50:45;13.20;72.74
68378;DHT22;55322;48.146;11.516;2023-03-24T14:53:17;13.24;72.67
68378;DHT22;55322;48.146;11.516;2023-03-24T14:55:44;13.17;73.39
68378;DHT22;55322;48.146;11.516;2023-03-24T14:58:21;13.13;72.84
68378;DHT22;55322;48.146;11.516;2023-03-24T15:00:51;13.17;72.91
68378;DHT22;55322;48.146;11.516;2023-03-24T15:06:21;13.20;72.32
68378;DHT22;55322;48.146;11.516;2023-03-24T15:08:49;13.24;72.35
68378;DHT22;55322;48.146;11.516;2023-03-24T15:11:25;13.31;71.89
68378;DHT22;55322;48.146;11.516;2023-03-24T15:13:53;13.33;71.85
68378;DHT22;55322;48.146;11.516;2023-03-24T15:16:24;13.30;71.75
68378;DHT22;55322;48.146;11.516;2023-03-24T15:18:55;13.31;72.43
68378;DHT22;55322;48.146;11.516;2023-03-24T15:21:22;13.23;72.90
68378;DHT22;55322;48.146;11.516;2023-03-24T15:23:49;13.20;72.79
68378;DHT22;55322;48.146;11.516;2023-03-24T15:26:15;13.17;72.35
68378;DHT22;55322;48.146;11.516;2023-03-24T15:28:42;13.11;72.03
68378;DHT22;55322;48.146;11.516;2023-03-24T15:31:08;13.13;72.41
68378;DHT22;55322;48.146;11.516;2023-03-24T15:33:38;13.10;72.31
68378;DHT22;55322;48.146;11.516;2023-03-24T15:36:13;13.00;72.43
68378;DHT22;55322;48.146;11.516;2023-03-24T15:38:44;13.00;71.53
68378;DHT22;55322;48.146;11.516;2023-03-24T15:41:12;12.94;72.30
68378;DHT22;55322;48.146;11.516;2023-03-24T15:43:44;12.86;72.15
68378;DHT22;55322;48.146;11.516;2023-03-24T15:46:26;12.89;72.42
68378;DHT22;55322;48.146;11.516;2023-03-24T15:48:52;12.87;72.02
68378;DHT22;55322;48.146;11.516;2023-03-24T15:51:18;12.80;71.83
68378;DHT22;55322;48.146;11.516;2023-03-24T15:53:54;12.75;72.24
68378;DHT22;55322;48.146;11.516;2023-03-24T15:56:28;12.70;72.45
68378;DHT22;55322;48.146;11.516;2023-03-24T16:01:30;12.59;73.46
68378;DHT22;55322;48.146;11.516;2023-03-24T16:04:02;12.50;74.98
68378;DHT22;55322;48.146;11.516;2023-03-24T16:06:32;12.32;76.70
68378;DHT22;55322;48.146;11.516;2023-03-24T16:09:13;12.17;78.27
68378;DHT22;55322;48.146;11.516;2023-03-24T16:11:39;12.05;78.35
68378;DHT22;55322;48.146;11.516;2023-03-24T16:16:46;11.70;81.86
68378;DHT22;55322;48.146;11.516;2023-03-24T16:19:11;11.53;83.34
68378;DHT22;55322;48.146;11.516;2023-03-24T16:21:37;11.40;84.03
68378;DHT22;55322;48.146;11.516;2023-03-24T16:24:03;11.28;85.12
68378;DHT22;55322;48.146;11.516;2023-03-24T16:26:30;11.13;86.10
68378;DHT22;55322;48.146;11.516;2023-03-24T16:29:13;11.07;86.64
68378;DHT22;55322;48.146;11.516;2023-03-24T16:31:42;11.02;87.56
68378;DHT22;55322;48.146;11.516;2023-03-24T16:34:08;10.93;87.51
68378;DHT22;55322;48.146;11.516;2023-03-24T16:36:34;10.93;88.62
68378;DHT22;55322;48.146;11.516;2023-03-24T16:39:00;10.89;88.56
68378;DHT22;55322;48.146;11.516;2023-03-24T16:41:26;10.96;87.15
68378;DHT22;55322;48.146;11.516;2023-03-24T16:43:52;10.77;88.80
68378;DHT22;55322;48.146;11.516;2023-03-24T16:48:52;10.86;88.19
68378;DHT22;55322;48.146;11.516;2023-03-24T16:51:18;10.88;87.88
68378;DHT22;55322;48.146;11.516;2023-03-24T16:53:45;10.83;87.38
68378;DHT22;55322;48.146;11.516;2023-03-24T16:56:16;10.84;87.24
68378;DHT22;55322;48.146;11.516;2023-03-24T16:58:42;10.80;87.12
68378;DHT22;55322;48.146;11.516;2023-03-24T17:01:19;10.72;87.22
68378;DHT22;55322;48.146;11.516;2023-03-24T17:04:10;10.65;87.95
68378;DHT22;55322;48.146;11.516;2023-03-24T17:06:39;10.60;87.03
68378;DHT22;55322;48.146;11.516;2023-03-24T17:09:06;10.63;86.85
68378;DHT22;55322;48.146;11.516;2023-03-24T17:11:40;10.59;86.43
68378;DHT22;55322;48.146;11.516;2023-03-24T17:14:06;10.59;86.15
68378;DHT22;55322;48.146;11.516;2023-03-24T17:16:37;10.59;85.84
68378;DHT22;55322;48.146;11.516;2023-03-24T17:19:06;10.62;85.61
68378;DHT22;55322;48.146;11.516;2023-03-24T17:21:37;10.50;85.68
68378;DHT22;55322;48.146;11.516;2023-03-24T17:24:04;10.49;85.78
68378;DHT22;55322;48.146;11.516;2023-03-24T17:26:39;10.53;84.99
68378;DHT22;55322;48.146;11.516;2023-03-24T17:29:05;10.55;84.58
68378;DHT22;55322;48.146;11.516;2023-03-24T17:31:31;10.55;84.71
68378;DHT22;55322;48.146;11.516;2023-03-24T17:33:57;10.55;84.44
68378;DHT22;55322;48.146;11.516;2023-03-24T17:36:23;10.52;84.02
68378;DHT22;55322;48.146;11.516;2023-03-24T17:38:48;10.53;83.55
68378;DHT22;55322;48.146;11.516;2023-03-24T17:41:14;10.55;82.25
68378;DHT22;55322;48.146;11.516;2023-03-24T17:43:39;10.59;81.75